sensor_id;sensor_type;location;lat;lon;timestamp;temperature;humidity
38183;DHT22;23991;52.430;10.586;2022-09-16T00:00:17;13.90;76.60
38183;DHT22;23991;52.430;10.586;2022-09-16T00:02:42;14.00;76.40
38183;DHT22;23991;52.430;10.586;2022-09-16T00:05:09;13.90;76.40
38183;DHT22;23991;52.430;10.586;2022-09-16T00:07:34;13.90;76.50
38183;DHT22;23991;52.430;10.586;2022-09-16T00:10:01;13.80;76.50
38183;DHT22;23991;52.430;10.586;2022-09-16T00:12:26;13.80;76.60
38183;DHT22;23991;52.430;10.586;2022-09-16T00:14:53;13.80;76.60
38183;DHT22;23991;52.430;10.586;2022-09-16T00:17:19;13.80;76.70
38183;DHT22;23991;52.430;10.586;2022-09-16T00:19:45;13.80;76.70
38183;DHT22;23991;52.430;10.586;2022-09-16T00:22:10;13.70;76.80
38183;DHT22;23991;52.430;10.586;2022-09-16T00:24:37;13.70;76.80
38183;DHT22;23991;52.430;10.586;2022-09-16T00:27:02;13.80;76.70
38183;DHT22;23991;52.430;10.586;2022-09-16T00:29:28;13.70;76.70
38183;DHT22;23991;52.430;10.586;2022-09-16T00:31:54;13.80;76.60
38183;DHT22;23991;52.430;10.586;2022-09-16T00:34:19;13.70;76.60
38183;DHT22;23991;52.430;10.586;2022-09-16T00:36:45;13.70;76.70
38183;DHT22;23991;52.430;10.586;2022-09-16T00:39:11;13.80;76.60
38183;DHT22;23991;52.430;10.586;2022-09-16T00:41:36;13.70;76.80
38183;DHT22;23991;52.430;10.586;2022-09-16T00:44:05;13.70;76.80
38183;DHT22;23991;52.430;10.586;2022-09-16T00:46:36;13.70;77.00
38183;DHT22;23991;52.430;10.586;2022-09-16T00:49:17;13.60;76.80
38183;DHT22;23991;52.430;10.586;2022-09-16T00:51:45;13.60;76.90
38183;DHT22;23991;52.430;10.586;2022-09-16T00:54:13;13.60;76.90
38183;DHT22;23991;52.430;10.586;2022-09-16T00:56:42;13.70;76.90
38183;DHT22;23991;52.430;10.586;2022-09-16T00:59:26;13.60;76.80
38183;DHT22;23991;52.430;10.586;2022-09-16T01:01:53;13.60;76.70
38183;DHT22;23991;52.430;10.586;2022-09-16T01:04:21;13.50;76.80
38183;DHT22;23991;52.430;10.586;2022-09-16T01:06:48;13.50;76.90
38183;DHT22;23991;52.430;10.586;2022-09-16T01:09:14;13.50;77.00
38183;DHT22;23991;52.430;10.586;2022-09-16T01:11:40;13.50;77.10
38183;DHT22;23991;52.430;10.586;2022-09-16T01:14:06;13.40;77.20
38183;DHT22;23991;52.430;10.586;2022-09-16T01:17:05;13.50;77.30
38183;DHT22;23991;52.430;10.586;2022-09-16T01:22:51;13.40;77.60
38183;DHT22;23991;52.430;10.586;2022-09-16T01:25:35;13.40;77.90
38183;DHT22;23991;52.430;10.586;2022-09-16T01:33:24;13.30;78.20
38183;DHT22;23991;52.430;10.586;2022-09-16T01:36:18;13.40;78.20
38183;DHT22;23991;52.430;10.586;2022-09-16T01:39:14;13.40;78.30
38183;DHT22;23991;52.430;10.586;2022-09-16T01:41:55;13.40;78.30
38183;DHT22;23991;52.430;10.586;2022-09-16T01:44:46;13.40;78.30
38183;DHT22;23991;52.430;10.586;2022-09-16T01:47:44;13.30;78.50
38183;DHT22;23991;52.430;10.586;2022-09-16T01:50:17;13.30;78.70
38183;DHT22;23991;52.430;10.586;2022-09-16T01:53:13;13.30;78.60
38183;DHT22;23991;52.430;10.586;2022-09-16T01:56:12;13.30;78.60
38183;DHT22;23991;52.430;10.586;2022-09-16T02:01:28;13.30;78.50
38183;DHT22;23991;52.430;10.586;2022-09-16T02:04:01;13.40;78.60
38183;DHT22;23991;52.430;10.586;2022-09-16T02:06:29;13.30;78.50
38183;DHT22;23991;52.430;10.586;2022-09-16T02:08:58;13.30;78.60
38183;DHT22;23991;52.430;10.586;2022-09-16T02:11:25;13.30;78.50
38183;DHT22;23991;52.430;10.586;2022-09-16T02:13:58;13.30;78.50
38183;DHT22;23991;52.430;10.586;2022-09-16T02:16:40;13.30;78.40
38183;DHT22;23991;52.430;10.586;2022-09-16T02:19:14;13.30;78.30
38183;DHT22;23991;52.430;10.586;2022-09-16T02:21:41;13.30;78.30
38183;DHT22;23991;52.430;10.586;2022-09-16T02:24:11;13.30;78.40
38183;DHT22;23991;52.430;10.586;2022-09-16T02:26:41;13.30;78.40
38183;DHT22;23991;52.430;10.586;2022-09-16T02:29:13;13.30;78.40
38183;DHT22;23991;52.430;10.586;2022-09-16T02:31:40;13.30;78.40
38183;DHT22;23991;52.430;10.586;2022-09-16T02:34:14;13.30;78.30
38183;DHT22;23991;52.430;10.586;2022-09-16T02:36:43;13.30;78.30
38183;DHT22;23991;52.430;10.586;2022-09-16T02:39:13;13.30;78.30
38183;DHT22;23991;52.430;10.586;2022-09-16T02:41:39;13.20;78.20
38183;DHT22;23991;52.430;10.586;2022-09-16T02:44:07;13.20;78.40
38183;DHT22;23991;52.430;10.586;2022-09-16T02:49:51;13.20;78.30
38183;DHT22;23991;52.430;10.586;2022-09-16T02:57:52;13.10;78.30
38183;DHT22;23991;52.430;10.586;2022-09-16T03:00:17;13.10;78.30
38183;DHT22;23991;52.430;10.586;2022-09-16T03:02:43;13.10;78.50
38183;DHT22;23991;52.430;10.586;2022-09-16T03:05:09;13.10;78.50
38183;DHT22;23991;52.430;10.586;2022-09-16T03:07:36;13.00;78.60
38183;DHT22;23991;52.430;10.586;2022-09-16T03:10:02;13.00;78.60
38183;DHT22;23991;52.430;10.586;2022-09-16T03:26:25;13.00;78.60
38183;DHT22;23991;52.430;10.586;2022-09-16T03:31:59;12.90;78.50
38183;DHT22;23991;52.430;10.586;2022-09-16T03:37:22;12.90;78.60
38183;DHT22;23991;52.430;10.586;2022-09-16T03:39:52;12.90;78.60
38183;DHT22;23991;52.430;10.586;2022-09-16T03:42:18;12.90;78.60
38183;DHT22;23991;52.430;10.586;2022-09-16T03:44:45;12.90;78.80
38183;DHT22;23991;52.430;10.586;2022-09-16T03:47:10;12.90;78.80
38183;DHT22;23991;52.430;10.586;2022-09-16T03:49:37;12.80;78.90
38183;DHT22;23991;52.430;10.586;2022-09-16T03:52:03;12.90;79.10
38183;DHT22;23991;52.430;10.586;2022-09-16T03:54:30;12.80;79.10
38183;DHT22;23991;52.430;10.586;2022-09-16T03:56:56;12.80;79.10
38183;DHT22;23991;52.430;10.586;2022-09-16T03:59:21;12.80;79.30
38183;DHT22;23991;52.430;10.586;2022-09-16T04:01:47;12.80;79.30
38183;DHT22;23991;52.430;10.586;2022-09-16T04:04:13;12.80;79.30
38183;DHT22;23991;52.430;10.586;2022-09-16T04:06:39;12.80;79.40
38183;DHT22;23991;52.430;10.586;2022-09-16T04:09:05;12.80;79.40
38183;DHT22;23991;52.430;10.586;2022-09-16T04:11:32;12.80;79.50
38183;DHT22;23991;52.430;10.586;2022-09-16T04:13:58;12.80;79.60
38183;DHT22;23991;52.430;10.586;2022-09-16T04:16:24;12.80;79.60
38183;DHT22;23991;52.430;10.586;2022-09-16T04:18:50;12.80;79.60
38183;DHT22;23991;52.430;10.586;2022-09-16T04:21:16;12.80;79.50
38183;DHT22;23991;52.430;10.586;2022-09-16T04:23:42;12.80;79.60
38183;DHT22;23991;52.430;10.586;2022-09-16T04:26:09;12.80;79.70
38183;DHT22;23991;52.430;10.586;2022-09-16T04:28:35;12.80;79.80
38183;DHT22;23991;52.430;10.586;2022-09-16T04:31:06;12.80;79.80
38183;DHT22;23991;52.430;10.586;2022-09-16T04:33:33;12.80;80.00
38183;DHT22;23991;52.430;10.586;2022-09-16T04:36:04;12.80;80.10
38183;DHT22;23991;52.430;10.586;2022-09-16T04:38:30;12.80;80.10
38183;DHT22;23991;52.430;10.586;2022-09-16T04:41:10;12.80;80.20
38183;DHT22;23991;52.430;10.586;2022-09-16T04:43:36;12.70;80.30
38183;DHT22;23991;52.430;10.586;2022-09-16T04:46:03;12.80;80.30
38183;DHT22;23991;52.430;10.586;2022-09-16T04:48:29;12.80;80.30
38183;DHT22;23991;52.430;10.586;2022-09-16T04:51:06;12.80;80.40
38183;DHT22;23991;52.430;10.586;2022-09-16T04:53:33;12.80;80.50
38183;DHT22;23991;52.430;10.586;2022-09-16T04:56:11;12.80;80.50
38183;DHT22;23991;52.430;10.586;2022-09-16T04:58:55;12.80;80.30
38183;DHT22;23991;52.430;10.586;2022-09-16T05:01:24;12.80;80.30
38183;DHT22;23991;52.430;10.586;2022-09-16T05:03:52;12.80;80.50
38183;DHT22;23991;52.430;10.586;2022-09-16T05:06:25;12.80;80.40
38183;DHT22;23991;52.430;10.586;2022-09-16T05:08:52;12.80;80.40
38183;DHT22;23991;52.430;10.586;2022-09-16T05:11:24;12.80;80.20
38183;DHT22;23991;52.430;10.586;2022-09-16T05:13:49;12.80;80.10
38183;DHT22;23991;52.430;10.586;2022-09-16T05:16:17;12.90;79.90
38183;DHT22;23991;52.430;10.586;2022-09-16T05:18:45;13.00;79.60
38183;DHT22;23991;52.430;10.586;2022-09-16T05:21:13;13.00;79.30
38183;DHT22;23991;52.430;10.586;2022-09-16T05:23:39;13.10;79.10
38183;DHT22;23991;52.430;10.586;2022-09-16T05:26:19;13.20;78.90
38183;DHT22;23991;52.430;10.586;2022-09-16T05:28:46;13.20;78.70
38183;DHT22;23991;52.430;10.586;2022-09-16T05:33:42;13.40;78.00
38183;DHT22;23991;52.430;10.586;2022-09-16T05:36:10;13.50;77.60
38183;DHT22;23991;52.430;10.586;2022-09-16T05:38:36;13.50;77.30
38183;DHT22;23991;52.430;10.586;2022-09-16T05:41:04;13.60;77.10
38183;DHT22;23991;52.430;10.586;2022-09-16T05:43:30;13.70;76.70
38183;DHT22;23991;52.430;10.586;2022-09-16T05:45:56;13.80;76.60
38183;DHT22;23991;52.430;10.586;2022-09-16T05:48:22;13.80;76.50
38183;DHT22;23991;52.430;10.586;2022-09-16T05:50:59;13.80;76.30
38183;DHT22;23991;52.430;10.586;2022-09-16T05:53:26;13.90;76.10
38183;DHT22;23991;52.430;10.586;2022-09-16T05:56:08;14.00;75.70
38183;DHT22;23991;52.430;10.586;2022-09-16T05:58:35;14.10;75.50
38183;DHT22;23991;52.430;10.586;2022-09-16T06:01:03;14.10;75.10
38183;DHT22;23991;52.430;10.586;2022-09-16T06:03:29;14.20;75.20
38183;DHT22;23991;52.430;10.586;2022-09-16T06:06:06;14.30;74.60
38183;DHT22;23991;52.430;10.586;2022-09-16T06:08:33;14.40;74.20
38183;DHT22;23991;52.430;10.586;2022-09-16T06:11:00;14.40;73.80
38183;DHT22;23991;52.430;10.586;2022-09-16T06:13:26;14.40;73.60
38183;DHT22;23991;52.430;10.586;2022-09-16T06:15:52;14.50;73.30
38183;DHT22;23991;52.430;10.586;2022-09-16T06:18:21;14.60;73.00
38183;DHT22;23991;52.430;10.586;2022-09-16T06:20:47;14.60;73.10
38183;DHT22;23991;52.430;10.586;2022-09-16T06:23:14;14.80;72.80
38183;DHT22;23991;52.430;10.586;2022-09-16T06:25:39;15.10;72.30
38183;DHT22;23991;52.430;10.586;2022-09-16T06:28:05;15.30;71.50
38183;DHT22;23991;52.430;10.586;2022-09-16T06:30:31;15.40;71.20
38183;DHT22;23991;52.430;10.586;2022-09-16T06:32:57;15.50;70.50
38183;DHT22;23991;52.430;10.586;2022-09-16T06:35:22;15.60;69.80
38183;DHT22;23991;52.430;10.586;2022-09-16T06:37:48;15.80;69.60
38183;DHT22;23991;52.430;10.586;2022-09-16T06:40:13;15.80;69.60
38183;DHT22;23991;52.430;10.586;2022-09-16T06:42:39;15.90;69.00
38183;DHT22;23991;52.430;10.586;2022-09-16T06:45:05;16.20;68.20
38183;DHT22;23991;52.430;10.586;2022-09-16T06:47:31;16.40;67.70
38183;DHT22;23991;52.430;10.586;2022-09-16T06:50:00;16.60;66.60
38183;DHT22;23991;52.430;10.586;2022-09-16T06:52:26;16.90;65.80
38183;DHT22;23991;52.430;10.586;2022-09-16T06:54:53;17.00;65.10
38183;DHT22;23991;52.430;10.586;2022-09-16T06:57:19;17.00;64.80
38183;DHT22;23991;52.430;10.586;2022-09-16T06:59:47;17.30;64.40
38183;DHT22;23991;52.430;10.586;2022-09-16T07:02:13;17.50;64.10
38183;DHT22;23991;52.430;10.586;2022-09-16T07:04:39;17.80;62.60
38183;DHT22;23991;52.430;10.586;2022-09-16T07:07:05;17.80;61.80
38183;DHT22;23991;52.430;10.586;2022-09-16T07:09:31;17.80;61.50
38183;DHT22;23991;52.430;10.586;2022-09-16T07:11:57;17.90;61.60
38183;DHT22;23991;52.430;10.586;2022-09-16T07:14:24;17.90;61.40
38183;DHT22;23991;52.430;10.586;2022-09-16T07:16:50;18.30;60.50
38183;DHT22;23991;52.430;10.586;2022-09-16T07:19:16;18.60;59.90
38183;DHT22;23991;52.430;10.586;2022-09-16T07:21:41;18.80;58.90
38183;DHT22;23991;52.430;10.586;2022-09-16T07:24:10;19.20;57.50
38183;DHT22;23991;52.430;10.586;2022-09-16T07:26:35;19.30;57.00
38183;DHT22;23991;52.430;10.586;2022-09-16T07:29:04;19.70;55.70
38183;DHT22;23991;52.430;10.586;2022-09-16T07:31:36;20.10;54.10
38183;DHT22;23991;52.430;10.586;2022-09-16T07:34:03;20.20;53.60
38183;DHT22;23991;52.430;10.586;2022-09-16T07:36:32;20.30;52.40
38183;DHT22;23991;52.430;10.586;2022-09-16T07:38:59;20.60;51.90
38183;DHT22;23991;52.430;10.586;2022-09-16T07:41:27;21.10;50.00
38183;DHT22;23991;52.430;10.586;2022-09-16T07:43:54;21.30;49.30
38183;DHT22;23991;52.430;10.586;2022-09-16T07:46:21;21.20;48.40
38183;DHT22;23991;52.430;10.586;2022-09-16T07:48:48;21.40;47.60
38183;DHT22;23991;52.430;10.586;2022-09-16T07:51:16;21.50;47.30
38183;DHT22;23991;52.430;10.586;2022-09-16T07:53:42;21.80;47.10
38183;DHT22;23991;52.430;10.586;2022-09-16T07:56:11;22.00;46.70
38183;DHT22;23991;52.430;10.586;2022-09-16T07:58:38;22.20;45.90
38183;DHT22;23991;52.430;10.586;2022-09-16T08:01:05;22.30;45.80
38183;DHT22;23991;52.430;10.586;2022-09-16T08:03:32;22.60;45.20
38183;DHT22;23991;52.430;10.586;2022-09-16T08:06:00;23.00;43.90
38183;DHT22;23991;52.430;10.586;2022-09-16T08:08:26;23.10;43.70
38183;DHT22;23991;52.430;10.586;2022-09-16T08:10:55;22.80;44.20
38183;DHT22;23991;52.430;10.586;2022-09-16T08:13:21;23.00;43.70
38183;DHT22;23991;52.430;10.586;2022-09-16T08:15:46;23.40;43.30
38183;DHT22;23991;52.430;10.586;2022-09-16T08:18:12;23.40;42.80
38183;DHT22;23991;52.430;10.586;2022-09-16T08:20:38;23.70;42.60
38183;DHT22;23991;52.430;10.586;2022-09-16T08:23:03;24.00;42.10
38183;DHT22;23991;52.430;10.586;2022-09-16T08:25:29;24.40;40.90
38183;DHT22;23991;52.430;10.586;2022-09-16T08:27:55;24.50;39.70
38183;DHT22;23991;52.430;10.586;2022-09-16T08:30:20;24.40;40.30
38183;DHT22;23991;52.430;10.586;2022-09-16T08:32:46;24.40;40.50
38183;DHT22;23991;52.430;10.586;2022-09-16T08:35:11;24.70;40.60
38183;DHT22;23991;52.430;10.586;2022-09-16T08:37:38;24.80;39.60
38183;DHT22;23991;52.430;10.586;2022-09-16T08:40:04;25.20;39.10
38183;DHT22;23991;52.430;10.586;2022-09-16T08:46:00;25.70;38.60
38183;DHT22;23991;52.430;10.586;2022-09-16T08:48:41;25.70;38.30
38183;DHT22;23991;52.430;10.586;2022-09-16T08:51:14;25.50;37.70
38183;DHT22;23991;52.430;10.586;2022-09-16T08:56:33;25.60;36.90
38183;DHT22;23991;52.430;10.586;2022-09-16T08:59:09;25.50;37.20
38183;DHT22;23991;52.430;10.586;2022-09-16T09:01:43;25.50;37.10
38183;DHT22;23991;52.430;10.586;2022-09-16T09:04:12;25.60;37.40
38183;DHT22;23991;52.430;10.586;2022-09-16T09:12:31;26.00;35.10
38183;DHT22;23991;52.430;10.586;2022-09-16T09:15:09;26.20;34.50
38183;DHT22;23991;52.430;10.586;2022-09-16T09:26:20;27.20;32.50
38183;DHT22;23991;52.430;10.586;2022-09-16T09:31:46;26.90;32.90
38183;DHT22;23991;52.430;10.586;2022-09-16T09:38:06;27.50;31.50
38183;DHT22;23991;52.430;10.586;2022-09-16T09:45:26;27.70;31.50
38183;DHT22;23991;52.430;10.586;2022-09-16T09:47:56;27.40;31.50
38183;DHT22;23991;52.430;10.586;2022-09-16T09:50:32;27.30;32.00
38183;DHT22;23991;52.430;10.586;2022-09-16T09:55:32;26.90;31.80
38183;DHT22;23991;52.430;10.586;2022-09-16T09:58:25;26.70;32.30
38183;DHT22;23991;52.430;10.586;2022-09-16T10:00:53;26.70;32.70
38183;DHT22;23991;52.430;10.586;2022-09-16T10:03:24;27.20;32.10
38183;DHT22;23991;52.430;10.586;2022-09-16T10:05:50;27.10;31.40
38183;DHT22;23991;52.430;10.586;2022-09-16T10:08:35;27.50;31.00
38183;DHT22;23991;52.430;10.586;2022-09-16T10:11:14;28.00;30.80
38183;DHT22;23991;52.430;10.586;2022-09-16T10:13:47;27.80;29.80
38183;DHT22;23991;52.430;10.586;2022-09-16T10:16:17;28.10;29.40
38183;DHT22;23991;52.430;10.586;2022-09-16T10:18:52;28.30;29.60
38183;DHT22;23991;52.430;10.586;2022-09-16T10:21:19;28.50;29.10
38183;DHT22;23991;52.430;10.586;2022-09-16T10:23:56;28.00;29.40
38183;DHT22;23991;52.430;10.586;2022-09-16T10:26:24;27.70;29.80
38183;DHT22;23991;52.430;10.586;2022-09-16T10:29:16;27.80;30.20
38183;DHT22;23991;52.430;10.586;2022-09-16T10:31:40;28.60;29.20
38183;DHT22;23991;52.430;10.586;2022-09-16T10:34:29;28.50;28.90
38183;DHT22;23991;52.430;10.586;2022-09-16T10:37:04;28.90;28.70
38183;DHT22;23991;52.430;10.586;2022-09-16T10:39:54;28.60;28.00
38183;DHT22;23991;52.430;10.586;2022-09-16T10:42:23;28.40;28.70
38183;DHT22;23991;52.430;10.586;2022-09-16T10:44:51;28.20;29.10
38183;DHT22;23991;52.430;10.586;2022-09-16T10:47:30;28.50;29.10
38183;DHT22;23991;52.430;10.586;2022-09-16T10:50:02;28.40;28.80
38183;DHT22;23991;52.430;10.586;2022-09-16T10:52:31;28.90;27.90
38183;DHT22;23991;52.430;10.586;2022-09-16T10:55:25;29.50;27.40
38183;DHT22;23991;52.430;10.586;2022-09-16T10:57:53;30.00;27.00
38183;DHT22;23991;52.430;10.586;2022-09-16T11:00:23;29.70;27.20
38183;DHT22;23991;52.430;10.586;2022-09-16T11:11:10;28.40;29.70
38183;DHT22;23991;52.430;10.586;2022-09-16T11:13:47;29.00;29.00
38183;DHT22;23991;52.430;10.586;2022-09-16T11:16:53;29.70;28.10
38183;DHT22;23991;52.430;10.586;2022-09-16T11:19:32;30.20;27.30
38183;DHT22;23991;52.430;10.586;2022-09-16T11:22:12;30.00;26.60
38183;DHT22;23991;52.430;10.586;2022-09-16T11:28:12;30.70;26.30
38183;DHT22;23991;52.430;10.586;2022-09-16T11:30:41;31.40;25.40
38183;DHT22;23991;52.430;10.586;2022-09-16T11:33:15;31.90;24.90
38183;DHT22;23991;52.430;10.586;2022-09-16T11:38:53;32.00;24.50
38183;DHT22;23991;52.430;10.586;2022-09-16T11:41:37;31.70;24.40
38183;DHT22;23991;52.430;10.586;2022-09-16T11:44:25;31.30;24.60
38183;DHT22;23991;52.430;10.586;2022-09-16T11:47:00;30.40;24.80
38183;DHT22;23991;52.430;10.586;2022-09-16T11:49:48;29.80;26.40
38183;DHT22;23991;52.430;10.586;2022-09-16T11:52:41;29.00;27.90
38183;DHT22;23991;52.430;10.586;2022-09-16T11:55:23;29.30;27.00
38183;DHT22;23991;52.430;10.586;2022-09-16T11:58:17;29.70;26.00
38183;DHT22;23991;52.430;10.586;2022-09-16T12:00:40;30.10;25.40
38183;DHT22;23991;52.430;10.586;2022-09-16T12:03:27;30.60;25.10
38183;DHT22;23991;52.430;10.586;2022-09-16T12:06:09;31.10;24.80
38183;DHT22;23991;52.430;10.586;2022-09-16T12:09:04;31.20;24.60
38183;DHT22;23991;52.430;10.586;2022-09-16T12:11:34;31.70;23.60
38183;DHT22;23991;52.430;10.586;2022-09-16T12:14:22;31.90;23.20
38183;DHT22;23991;52.430;10.586;2022-09-16T12:16:57;32.20;22.80
38183;DHT22;23991;52.430;10.586;2022-09-16T12:19:34;32.30;23.00
38183;DHT22;23991;52.430;10.586;2022-09-16T12:22:11;33.20;22.90
38183;DHT22;23991;52.430;10.586;2022-09-16T12:24:42;33.30;22.40
38183;DHT22;23991;52.430;10.586;2022-09-16T12:27:25;33.10;22.20
38183;DHT22;23991;52.430;10.586;2022-09-16T12:30:02;33.00;22.80
38183;DHT22;23991;52.430;10.586;2022-09-16T12:32:53;33.20;22.20
38183;DHT22;23991;52.430;10.586;2022-09-16T12:37:53;33.60;21.90
38183;DHT22;23991;52.430;10.586;2022-09-16T12:40:21;33.00;21.00
38183;DHT22;23991;52.430;10.586;2022-09-16T12:54:08;33.60;20.40
38183;DHT22;23991;52.430;10.586;2022-09-16T12:56:54;33.60;19.70
38183;DHT22;23991;52.430;10.586;2022-09-16T13:02:15;33.20;20.50
38183;DHT22;23991;52.430;10.586;2022-09-16T13:04:47;32.80;20.80
38183;DHT22;23991;52.430;10.586;2022-09-16T13:07:22;32.60;21.00
38183;DHT22;23991;52.430;10.586;2022-09-16T13:09:49;32.80;21.70
38183;DHT22;23991;52.430;10.586;2022-09-16T13:12:26;32.90;21.80
38183;DHT22;23991;52.430;10.586;2022-09-16T13:15:04;33.40;21.80
38183;DHT22;23991;52.430;10.586;2022-09-16T13:17:32;33.20;22.30
38183;DHT22;23991;52.430;10.586;2022-09-16T13:20:33;33.00;22.70
38183;DHT22;23991;52.430;10.586;2022-09-16T13:23:01;32.50;23.20
38183;DHT22;23991;52.430;10.586;2022-09-16T13:31:15;28.70;28.40
38183;DHT22;23991;52.430;10.586;2022-09-16T13:34:01;27.70;30.00
38183;DHT22;23991;52.430;10.586;2022-09-16T13:36:31;27.40;29.90
38183;DHT22;23991;52.430;10.586;2022-09-16T13:39:05;27.30;30.20
38183;DHT22;23991;52.430;10.586;2022-09-16T13:41:40;27.50;29.80
38183;DHT22;23991;52.430;10.586;2022-09-16T13:46:50;27.20;28.70
38183;DHT22;23991;52.430;10.586;2022-09-16T13:49:22;27.50;28.60
38183;DHT22;23991;52.430;10.586;2022-09-16T13:51:50;28.00;27.90
38183;DHT22;23991;52.430;10.586;2022-09-16T13:54:24;28.20;27.20
38183;DHT22;23991;52.430;10.586;2022-09-16T14:00:20;29.10;26.10
38183;DHT22;23991;52.430;10.586;2022-09-16T14:05:59;29.70;24.40
38183;DHT22;23991;52.430;10.586;2022-09-16T14:11:37;29.50;25.00
38183;DHT22;23991;52.430;10.586;2022-09-16T14:14:13;29.70;25.00
38183;DHT22;23991;52.430;10.586;2022-09-16T14:16:42;29.70;24.80
38183;DHT22;23991;52.430;10.586;2022-09-16T14:19:29;30.00;24.50
38183;DHT22;23991;52.430;10.586;2022-09-16T14:24:36;30.00;24.10
38183;DHT22;23991;52.430;10.586;2022-09-16T14:27:02;29.70;24.80
38183;DHT22;23991;52.430;10.586;2022-09-16T14:29:27;29.40;24.60
38183;DHT22;23991;52.430;10.586;2022-09-16T14:31:54;29.70;24.60
38183;DHT22;23991;52.430;10.586;2022-09-16T14:34:31;29.80;24.30
38183;DHT22;23991;52.430;10.586;2022-09-16T14:36:58;29.20;24.60
38183;DHT22;23991;52.430;10.586;2022-09-16T14:39:25;29.20;25.00
38183;DHT22;23991;52.430;10.586;2022-09-16T14:42:27;29.40;24.80
38183;DHT22;23991;52.430;10.586;2022-09-16T14:44:49;29.20;24.90
38183;DHT22;23991;52.430;10.586;2022-09-16T14:47:34;29.40;25.10
38183;DHT22;23991;52.430;10.586;2022-09-16T14:50:16;29.20;25.40
38183;DHT22;23991;52.430;10.586;2022-09-16T14:52:55;29.10;26.10
38183;DHT22;23991;52.430;10.586;2022-09-16T14:55:24;28.40;26.50
38183;DHT22;23991;52.430;10.586;2022-09-16T14:57:50;28.10;27.10
38183;DHT22;23991;52.430;10.586;2022-09-16T15:00:17;28.20;27.00
38183;DHT22;23991;52.430;10.586;2022-09-16T15:05:37;27.50;27.80
38183;DHT22;23991;52.430;10.586;2022-09-16T15:08:22;27.20;28.00
38183;DHT22;23991;52.430;10.586;2022-09-16T15:10:55;26.50;29.10
38183;DHT22;23991;52.430;10.586;2022-09-16T15:13:35;26.20;29.90
38183;DHT22;23991;52.430;10.586;2022-09-16T15:18:37;25.80;30.40
38183;DHT22;23991;52.430;10.586;2022-09-16T15:21:20;25.70;30.80
38183;DHT22;23991;52.430;10.586;2022-09-16T15:23:50;25.80;30.60
38183;DHT22;23991;52.430;10.586;2022-09-16T15:26:24;25.70;30.20
38183;DHT22;23991;52.430;10.586;2022-09-16T15:33:57;25.10;31.20
38183;DHT22;23991;52.430;10.586;2022-09-16T15:36:50;24.80;31.60
38183;DHT22;23991;52.430;10.586;2022-09-16T15:39:34;24.90;31.80
38183;DHT22;23991;52.430;10.586;2022-09-16T15:44:53;24.40;32.70
38183;DHT22;23991;52.430;10.586;2022-09-16T15:50:13;24.30;33.20
38183;DHT22;23991;52.430;10.586;2022-09-16T15:52:54;24.20;33.50
38183;DHT22;23991;52.430;10.586;2022-09-16T15:55:33;23.90;33.60
38183;DHT22;23991;52.430;10.586;2022-09-16T15:58:08;23.70;34.30
38183;DHT22;23991;52.430;10.586;2022-09-16T16:01:17;23.80;34.20
38183;DHT22;23991;52.430;10.586;2022-09-16T16:03:56;23.50;34.80
38183;DHT22;23991;52.430;10.586;2022-09-16T16:06:48;23.70;34.70
38183;DHT22;23991;52.430;10.586;2022-09-16T16:11:59;23.00;35.30
38183;DHT22;23991;52.430;10.586;2022-09-16T16:14:27;23.00;35.40
38183;DHT22;23991;52.430;10.586;2022-09-16T16:17:01;22.90;35.80
38183;DHT22;23991;52.430;10.586;2022-09-16T16:19:28;22.70;36.10
38183;DHT22;23991;52.430;10.586;2022-09-16T16:21:54;22.50;36.40
38183;DHT22;23991;52.430;10.586;2022-09-16T16:24:24;22.30;36.90
38183;DHT22;23991;52.430;10.586;2022-09-16T16:26:50;21.90;37.70
38183;DHT22;23991;52.430;10.586;2022-09-16T16:29:16;21.80;37.80
38183;DHT22;23991;52.430;10.586;2022-09-16T16:34:26;21.70;38.20
38183;DHT22;23991;52.430;10.586;2022-09-16T16:36:52;21.70;38.40
38183;DHT22;23991;52.430;10.586;2022-09-16T16:39:18;21.80;38.40
38183;DHT22;23991;52.430;10.586;2022-09-16T16:41:43;21.60;38.90
38183;DHT22;23991;52.430;10.586;2022-09-16T16:44:09;21.40;39.50
38183;DHT22;23991;52.430;10.586;2022-09-16T16:46:34;21.40;39.80
38183;DHT22;23991;52.430;10.586;2022-09-16T16:49:00;21.40;39.90
38183;DHT22;23991;52.430;10.586;2022-09-16T16:51:25;21.40;40.00
38183;DHT22;23991;52.430;10.586;2022-09-16T16:53:51;21.00;40.90
38183;DHT22;23991;52.430;10.586;2022-09-16T16:56:17;20.80;41.80
38183;DHT22;23991;52.430;10.586;2022-09-16T16:58:43;20.60;42.70
38183;DHT22;23991;52.430;10.586;2022-09-16T17:01:13;20.40;43.60
38183;DHT22;23991;52.430;10.586;2022-09-16T17:03:41;20.40;44.30
38183;DHT22;23991;52.430;10.586;2022-09-16T17:06:09;20.40;44.00
38183;DHT22;23991;52.430;10.586;2022-09-16T17:08:34;20.50;44.30
38183;DHT22;23991;52.430;10.586;2022-09-16T17:13:30;20.50;45.20
38183;DHT22;23991;52.430;10.586;2022-09-16T17:15:55;20.40;45.30
38183;DHT22;23991;52.430;10.586;2022-09-16T17:18:21;20.20;46.50
38183;DHT22;23991;52.430;10.586;2022-09-16T17:20:47;20.10;46.80
38183;DHT22;23991;52.430;10.586;2022-09-16T17:23:12;19.90;47.70
38183;DHT22;23991;52.430;10.586;2022-09-16T17:25:38;19.80;48.10
38183;DHT22;23991;52.430;10.586;2022-09-16T17:28:03;19.80;48.10
38183;DHT22;23991;52.430;10.586;2022-09-16T17:30:29;19.70;49.40
38183;DHT22;23991;52.430;10.586;2022-09-16T17:32:54;19.50;50.50
38183;DHT22;23991;52.430;10.586;2022-09-16T17:35:20;19.40;51.20
38183;DHT22;23991;52.430;10.586;2022-09-16T17:37:45;19.30;52.80
38183;DHT22;23991;52.430;10.586;2022-09-16T17:40:11;19.20;51.90
38183;DHT22;23991;52.430;10.586;2022-09-16T17:42:36;19.10;52.90
38183;DHT22;23991;52.430;10.586;2022-09-16T17:45:02;19.00;53.20
38183;DHT22;23991;52.430;10.586;2022-09-16T17:47:33;18.80;53.70
38183;DHT22;23991;52.430;10.586;2022-09-16T17:49:59;18.60;55.00
38183;DHT22;23991;52.430;10.586;2022-09-16T17:52:29;18.50;55.60
38183;DHT22;23991;52.430;10.586;2022-09-16T17:54:55;18.40;56.10
38183;DHT22;23991;52.430;10.586;2022-09-16T17:57:21;18.30;56.10
38183;DHT22;23991;52.430;10.586;2022-09-16T17:59:47;18.10;57.10
38183;DHT22;23991;52.430;10.586;2022-09-16T18:02:13;18.10;56.30
38183;DHT22;23991;52.430;10.586;2022-09-16T18:04:40;18.00;56.90
38183;DHT22;23991;52.430;10.586;2022-09-16T18:07:07;17.90;56.80
38183;DHT22;23991;52.430;10.586;2022-09-16T18:09:33;17.80;56.70
38183;DHT22;23991;52.430;10.586;2022-09-16T18:11:59;17.60;56.90